This is the latest recevied weather packets stored in our database for station/object WMSA. If no packets are shown the sender has not sent any weather packets the latest 10 day(s).
| Time | Temp. | Humidity | Pressure | Rain* | Wind** | Luminosity | Snow |
|---|---|---|---|---|---|---|---|
| 1778181000 | 26.67° C | 88% | 1007 hPa | - | - | - | - |
| 1778177400 | 26.67° C | 88% | 1008 hPa | - | - | - | - |
| 1778173804 | 26.67° C | 88% | 1008 hPa | - | - | - | - |
| 1778170200 | 27.78° C | 83% | 1009 hPa | - | - | - | - |
| 1778166600 | 27.78° C | 88% | 1009 hPa | - | - | - | - |
| 1778163000 | 27.78° C | 88% | 1008 hPa | - | - | - | - |
| 1778160593 | 28.89° C | 83% | 1008 hPa | - | - | - | - |
| 1778159400 | 30° C | 79% | 1007 hPa | - | - | - | - |
| 1778155805 | 30° C | 74% | 1006 hPa | - | - | - | - |
| 1778152201 | 30° C | 79% | 1005 hPa | - | - | - | - |
| 1778148599 | 30° C | 79% | 1004 hPa | - | - | - | - |
| 1778146792 | 30° C | 74% | 1004 hPa | - | - | - | - |
| 1778144999 | 28.89° C | 79% | 1004 hPa | - | - | - | - |
| 1778141992 | 28.89° C | 88% | 1004 hPa | - | - | - | - |
| 1778141405 | 30° C | 74% | 1004 hPa | - | - | - | - |
| 1778137799 | 35° C | 53% | 1005 hPa | - | - | - | - |
| 1778134199 | 33.89° C | 56% | 1006 hPa | - | - | - | - |
| 1778130599 | 33.89° C | 56% | 1007 hPa | - | - | - | - |
| 1778127004 | 32.78° C | 59% | 1008 hPa | - | - | - | - |
| 1778094598 | 25.56° C | 94% | 1007 hPa | - | - | - | - |
| 1778090998 | 26.67° C | 88% | 1007 hPa | - | - | - | - |
| 1778076598 | 26.67° C | 88% | 1008 hPa | - | - | - | - |
| 1778056190 | 25.56° C | 94% | 1006 hPa | - | - | - | - |
| 1778054997 | 26.67° C | 94% | 1006 hPa | - | - | - | - |
| 1778053790 | 30° C | 79% | 1006 hPa | - | - | - | - |
* Rain since midnight (hover to see other rain measurements)
** Current wind speed in m/s (hover to see current wind gust speed)